Varna, Illinois
Current Conditions -  °F | °C
As of 5:35 AM on Tuesday 21 Oct 2014 (Local Time) from KC75 Reporting Station
Haze Haze  
Wind Chill: 38°   Ceiling: Unl
Heat Index: 38°   Visibility: 5mi
Dew Point: 37°   Wind: 3mph
Humidity: 95%   Direction: 350°N
Pressure: 30.08"   Gusts: NA
Location:  41.04°N, 89.23°W
Report Text: KC75 211035Z AUTO 35003KT 5SM BR CLR 04/03 A3008 RMK AO2 T00350027
Loading
Personal Weather Stations






























Interactive Weather Map
Tropical Storm Tracking
New forecast layout! Learn more

10-Day Weather Forecast

Advertisements
Track Severe Weather on mobile